createdAt,value
2022-12-25T00:08:18.308Z,99064.06
2022-12-25T00:13:20.189Z,99057.19
2022-12-25T00:18:24.064Z,99050.16
2022-12-25T00:23:26.488Z,99042.66
2022-12-25T00:28:32.875Z,99073.34
2022-12-25T00:33:39.922Z,99067.88
2022-12-25T00:56:42.252Z,99066.28
2022-12-25T01:01:59.736Z,99056.28
2022-12-25T01:07:50.237Z,99035.44
2022-12-25T01:18:51.369Z,99053.16
2022-12-25T01:23:54.055Z,99070.09
2022-12-25T01:28:57.215Z,99066.41
2022-12-25T01:33:58.981Z,99062.09
2022-12-25T01:39:00.896Z,99065.00
2022-12-25T01:44:07.233Z,99081.06
2022-12-25T01:49:12.728Z,99075.03
2022-12-25T01:54:18.001Z,99079.00
2022-12-25T01:59:24.313Z,99073.03
2022-12-25T02:04:30.172Z,99073.03
2022-12-25T02:09:32.587Z,99071.19
2022-12-25T02:14:37.510Z,99056.91
2022-12-25T02:20:12.062Z,99039.31
2022-12-25T02:25:33.154Z,99047.66
2022-12-25T02:31:05.047Z,99038.88
2022-12-25T02:36:16.200Z,99024.69
2022-12-25T02:41:27.885Z,99041.16
2022-12-25T02:46:33.634Z,99047.28
2022-12-25T02:51:40.328Z,99059.38
2022-12-25T02:56:46.903Z,99078.56
2022-12-25T03:01:51.147Z,99074.63
2022-12-25T03:07:02.667Z,99061.31
2022-12-25T03:12:13.507Z,99055.78
2022-12-25T03:17:17.140Z,99058.00
2022-12-25T03:22:24.952Z,99051.38
2022-12-25T03:27:29.741Z,99056.91
2022-12-25T03:32:40.223Z,99051.50
2022-12-25T03:37:50.679Z,99049.66
2022-12-25T03:42:58.950Z,99030.31
2022-12-25T03:48:05.308Z,99015.66
2022-12-25T03:53:12.711Z,99019.91
2022-12-25T03:58:19.219Z,99025.69
2022-12-25T04:03:22.593Z,99022.72
2022-12-25T04:08:24.464Z,99023.44
2022-12-25T04:13:26.317Z,99022.88
2022-12-25T04:18:29.585Z,99016.72
2022-12-25T04:28:51.321Z,99028.00
2022-12-25T04:33:58.829Z,99005.91
2022-12-25T04:39:00.498Z,99012.97
2022-12-25T04:44:02.375Z,99005.53
2022-12-25T04:49:05.785Z,99005.66
2022-12-25T04:54:07.493Z,99003.50
2022-12-25T04:59:09.330Z,99007.78
2022-12-25T05:04:12.737Z,99013.59
2022-12-25T05:09:14.388Z,99011.34
2022-12-25T05:14:16.234Z,99025.09
2022-12-25T05:19:19.532Z,99022.25
2022-12-25T05:24:26.017Z,99007.91
2022-12-25T05:29:27.981Z,99018.38
2022-12-25T05:34:31.410Z,99013.63
2022-12-25T05:45:57.184Z,98987.66
2022-12-25T05:51:34.547Z,98982.44
2022-12-25T05:56:55.213Z,98991.47
2022-12-25T06:02:29.563Z,98976.44
2022-12-25T06:07:55.793Z,98958.22
2022-12-25T06:13:28.656Z,98968.97
2022-12-25T06:24:21.495Z,98963.41
2022-12-25T07:04:37.942Z,98971.41
2022-12-25T07:10:23.739Z,98968.53
2022-12-25T07:22:09.137Z,98925.47
2022-12-25T07:45:17.569Z,98928.41
2022-12-25T07:50:44.695Z,98929.84
2022-12-25T07:55:47.776Z,98913.28
2022-12-25T08:00:49.449Z,98914.44
2022-12-25T08:05:51.075Z,98916.22
2022-12-25T08:10:54.361Z,98903.06
2022-12-25T08:15:57.226Z,98905.78
2022-12-25T08:21:03.712Z,98912.75
2022-12-25T08:26:08.520Z,98913.56
2022-12-25T08:31:14.272Z,98940.84
2022-12-25T08:36:17.180Z,98906.50
2022-12-25T08:41:23.170Z,98882.91
2022-12-25T08:46:25.469Z,98893.06
2022-12-25T08:51:27.304Z,98887.09
2022-12-25T08:56:30.778Z,98898.06
2022-12-25T09:01:32.408Z,98900.88
2022-12-25T09:06:34.261Z,98890.84
2022-12-25T09:11:37.315Z,98889.34
2022-12-25T09:16:39.074Z,98884.50
2022-12-25T09:21:41.080Z,98888.84
2022-12-25T09:26:44.692Z,98893.38
2022-12-25T09:31:46.509Z,98882.34
2022-12-25T09:36:48.480Z,98878.63
2022-12-25T09:41:56.277Z,98874.72
2022-12-25T09:47:01.461Z,98861.09
2022-12-25T09:52:08.767Z,98838.03
2022-12-25T09:57:14.913Z,98826.06
2022-12-25T10:02:52.605Z,98816.88
2022-12-25T10:08:02.464Z,98815.03
2022-12-25T10:13:16.681Z,98812.84
2022-12-25T10:18:47.266Z,98832.50
2022-12-25T10:23:55.519Z,98799.41
2022-12-25T10:29:04.341Z,98833.28
2022-12-25T10:34:07.095Z,98818.63
2022-12-25T10:39:12.547Z,98814.16
2022-12-25T10:44:17.783Z,98799.88
2022-12-25T10:49:22.152Z,98787.28
2022-12-25T10:54:26.366Z,98776.81
2022-12-25T10:59:34.436Z,98787.00
2022-12-25T11:04:36.534Z,98780.47
2022-12-25T11:09:38.194Z,98790.91
2022-12-25T11:14:53.586Z,98779.94
2022-12-25T11:19:57.221Z,98771.56
2022-12-25T11:25:11.866Z,98777.47
2022-12-25T11:30:19.380Z,98764.03
2022-12-25T11:35:24.269Z,98775.81
2022-12-25T11:40:28.934Z,98750.84
2022-12-25T11:45:37.211Z,98709.19
2022-12-25T11:50:43.466Z,98680.72
2022-12-25T11:55:49.356Z,98686.19
2022-12-25T12:00:55.187Z,98690.31
2022-12-25T12:05:59.805Z,98675.69
2022-12-25T12:11:12.639Z,98664.69
2022-12-25T12:16:15.865Z,98670.25
2022-12-25T12:21:22.425Z,98659.38
2022-12-25T12:26:27.536Z,98631.78
2022-12-25T12:31:39.271Z,98620.56
2022-12-25T12:36:41.252Z,98631.00
2022-12-25T12:41:48.445Z,98630.09
2022-12-25T12:46:53.537Z,98639.91
2022-12-25T12:52:06.990Z,98659.91
2022-12-25T12:57:23.177Z,98646.69
2022-12-25T13:02:58.241Z,98642.06
2022-12-25T13:08:07.877Z,98647.25
2022-12-25T13:13:16.962Z,98646.19
2022-12-25T13:18:20.938Z,98647.84
2022-12-25T13:23:25.709Z,98650.03
2022-12-25T13:28:28.652Z,98631.69
2022-12-25T13:33:32.099Z,98623.13
2022-12-25T13:38:34.453Z,98620.19
2022-12-25T13:43:36.517Z,98626.44
2022-12-25T13:48:39.852Z,98617.97
2022-12-25T13:53:42.013Z,98616.91
2022-12-25T13:58:47.499Z,98614.94
2022-12-25T14:03:50.739Z,98621.50
2022-12-25T14:08:54.603Z,98596.34
2022-12-25T14:14:00.117Z,98622.09
2022-12-25T14:19:03.547Z,98611.41
2022-12-25T14:24:13.564Z,98629.78
2022-12-25T14:29:19.140Z,98604.03
2022-12-25T14:34:27.918Z,98609.50
2022-12-25T14:39:35.462Z,98624.56
2022-12-25T14:44:38.935Z,98625.38
2022-12-25T14:49:42.991Z,98633.59
2022-12-25T14:54:47.245Z,98614.44
2022-12-25T14:59:56.573Z,98623.13
2022-12-25T15:04:59.685Z,98632.25
2022-12-25T15:15:23.590Z,98599.09
2022-12-25T15:20:30.831Z,98630.31
2022-12-25T15:25:32.482Z,98633.59
2022-12-25T15:30:36.525Z,98650.56
2022-12-25T15:35:39.511Z,98636.88
2022-12-25T15:40:42.491Z,98650.78
2022-12-25T15:45:44.304Z,98651.06
2022-12-25T15:50:47.492Z,98625.91
2022-12-25T15:55:49.495Z,98622.38
2022-12-25T16:00:51.186Z,98620.75
2022-12-25T16:05:54.427Z,98605.63
2022-12-25T16:10:56.274Z,98582.09
2022-12-25T16:15:57.954Z,98572.78
2022-12-25T16:21:01.329Z,98579.31
2022-12-25T16:26:02.983Z,98594.66
2022-12-25T16:31:04.887Z,98578.44
2022-12-25T16:36:08.852Z,98593.41
2022-12-25T16:41:10.488Z,98624.19
2022-12-25T16:46:13.905Z,98638.28
2022-12-25T16:51:19.178Z,98645.06
2022-12-25T16:56:21.227Z,98622.53
2022-12-25T17:01:24.277Z,98602.63
2022-12-25T17:06:28.278Z,98596.56
2022-12-25T17:11:30.465Z,98597.97
2022-12-25T17:16:34.267Z,98580.94
2022-12-25T17:21:37.571Z,98577.91
2022-12-25T17:26:39.651Z,98582.03
2022-12-25T17:31:41.492Z,98603.44
2022-12-25T17:36:44.588Z,98601.72
2022-12-25T17:41:46.300Z,98600.44
2022-12-25T17:46:48.820Z,98594.63
2022-12-25T17:51:53.956Z,98598.47
2022-12-25T17:56:55.684Z,98604.28
2022-12-25T18:01:57.627Z,98595.69
2022-12-25T18:07:00.939Z,98587.38
2022-12-25T18:12:02.563Z,98589.03
2022-12-25T18:17:04.172Z,98588.53
2022-12-25T18:22:08.733Z,98604.81
2022-12-25T18:27:19.274Z,98600.72
2022-12-25T18:32:27.763Z,98609.47
2022-12-25T18:37:39.423Z,98605.56
2022-12-25T18:42:42.021Z,98589.31
2022-12-25T18:47:43.815Z,98613.59
2022-12-25T18:52:51.663Z,98619.34
2022-12-25T18:57:54.097Z,98610.84
2022-12-25T19:02:56.648Z,98607.19
2022-12-25T19:08:00.391Z,98592.16
2022-12-25T19:13:02.439Z,98619.84
2022-12-25T19:18:04.281Z,98599.91
2022-12-25T19:23:07.826Z,98579.84
2022-12-25T19:28:09.694Z,98587.63
2022-12-25T19:33:17.472Z,98592.94
2022-12-25T19:38:21.194Z,98590.28
2022-12-25T19:43:23.004Z,98609.19
2022-12-25T19:48:25.173Z,98608.31
2022-12-25T19:53:29.809Z,98608.34
2022-12-25T19:58:31.494Z,98614.69
2022-12-25T20:03:33.612Z,98594.09
2022-12-25T20:08:36.900Z,98605.38
2022-12-25T20:13:38.521Z,98608.13
2022-12-25T20:18:40.447Z,98606.22
2022-12-25T20:23:44.786Z,98603.50
2022-12-25T20:28:46.515Z,98609.22
2022-12-25T20:33:48.313Z,98595.25
2022-12-25T20:38:51.421Z,98601.84
2022-12-25T20:43:53.271Z,98624.03
2022-12-25T20:48:55.340Z,98590.34
2022-12-25T20:53:58.436Z,98595.81
2022-12-25T20:59:01.005Z,98594.16
2022-12-25T21:04:02.835Z,98606.50
2022-12-25T21:09:06.309Z,98616.88
2022-12-25T21:14:08.229Z,98613.06
2022-12-25T21:19:09.979Z,98631.13
2022-12-25T21:24:13.052Z,98624.84
2022-12-25T21:29:14.884Z,98637.44
2022-12-25T21:34:16.607Z,98627.59
2022-12-25T21:39:19.635Z,98623.72
2022-12-25T21:44:21.254Z,98632.78
2022-12-25T21:49:23.117Z,98631.13
2022-12-25T21:54:26.549Z,98626.47
2022-12-25T21:59:28.311Z,98638.53
2022-12-25T22:04:29.929Z,98633.88
2022-12-25T22:09:33.230Z,98633.88
2022-12-25T22:14:52.804Z,98648.66
2022-12-25T22:19:55.615Z,98660.97
2022-12-25T22:25:00.582Z,98638.53
2022-12-25T22:30:02.645Z,98627.31
2022-12-25T22:35:05.046Z,98638.28
2022-12-25T22:40:10.990Z,98646.75
2022-12-25T22:45:13.002Z,98650.03
2022-12-25T22:50:16.284Z,98653.31
2022-12-25T22:55:19.490Z,98653.03
2022-12-25T23:00:21.530Z,98658.22
2022-12-25T23:05:23.142Z,98655.50
2022-12-25T23:10:28.249Z,98662.06
2022-12-25T23:15:29.879Z,98670.81
2022-12-25T23:20:32.681Z,98677.41
2022-12-25T23:25:35.766Z,98650.28
2022-12-25T23:30:37.681Z,98662.88
2022-12-25T23:35:39.623Z,98666.44
2022-12-25T23:40:42.765Z,98664.00
2022-12-25T23:45:44.570Z,98663.16
2022-12-25T23:50:46.429Z,98658.50
2022-12-25T23:55:55.397Z,98667.00
